Time;durP1;ratioP1;P1;durP2;ratioP2;P2;SDS_P1;SDS_P2;PMS_P1;PMS_P2;Temp;Humidity;BMP_temperature;BMP_pressure;BME280_temperature;BME280_humidity;BME280_pressure;Samples;Min_cycle;Max_cycle;Signal;HPM_P1;HPM_P2
2023/07/15 00:00:49;;;;;;;10.85;7.53;;;;;;;16.25;100.00;98873.38;5066691;28;20040;-42
2023/07/15 00:03:16;;;;;;;10.60;7.70;;;;;;;16.25;100.00;98868.97;5063187;28;20510;-41
2023/07/15 00:05:42;;;;;;;10.63;7.13;;;;;;;16.27;100.00;98877.56;5080853;28;20048;-43
2023/07/15 00:08:08;;;;;;;10.25;6.90;;;;;;;16.22;100.00;98860.47;5065099;28;20081;-45
2023/07/15 00:10:36;;;;;;;9.60;6.60;;;;;;;16.30;100.00;98868.63;5065313;28;20157;-44
2023/07/15 00:13:02;;;;;;;8.93;6.30;;;;;;;16.29;100.00;98875.66;5047778;28;20036;-41
2023/07/15 00:15:28;;;;;;;8.23;6.95;;;;;;;16.29;100.00;98867.78;5064456;28;20032;-42
2023/07/15 00:17:54;;;;;;;10.35;6.88;;;;;;;16.28;100.00;98863.50;5066364;28;20109;-43
2023/07/15 00:20:20;;;;;;;9.75;6.35;;;;;;;16.13;100.00;98843.59;5065123;28;20043;-44
2023/07/15 00:22:47;;;;;;;8.23;6.03;;;;;;;16.31;100.00;98867.69;5065926;28;20093;-42
2023/07/15 00:25:15;;;;;;;11.90;6.65;;;;;;;16.29;100.00;98870.41;5043470;28;20072;-43
2023/07/15 00:27:45;;;;;;;11.20;6.70;;;;;;;16.31;100.00;98870.31;5044326;28;20493;-42
2023/07/15 00:30:13;;;;;;;8.20;6.25;;;;;;;16.30;100.00;98868.63;5059181;28;20781;-41
2023/07/15 00:32:41;;;;;;;10.07;6.65;;;;;;;16.32;100.00;98877.25;5066442;28;20520;-41
2023/07/15 00:35:36;;;;;;;10.43;6.75;;;;;;;16.30;100.00;98866.84;5067090;28;20098;-43
2023/07/15 00:38:02;;;;;;;11.13;6.22;;;;;;;16.29;100.00;98865.16;5038748;28;20048;-43
2023/07/15 00:40:29;;;;;;;12.80;7.00;;;;;;;16.28;100.00;98871.34;5064092;28;20090;-42
2023/07/15 00:43:32;;;;;;;8.32;6.07;;;;;;;16.27;100.00;98863.63;5059906;28;20181;-42
2023/07/15 00:46:22;;;;;;;9.40;5.95;;;;;;;16.23;100.00;98865.59;5046303;28;20031;-41
2023/07/15 00:49:00;;;;;;;8.60;5.55;;;;;;;16.23;100.00;98870.00;5052999;28;20123;-42
2023/07/15 00:51:27;;;;;;;6.65;4.43;;;;;;;16.21;100.00;98864.03;5082035;28;20037;-43
2023/07/15 00:53:54;;;;;;;7.28;4.15;;;;;;;16.18;100.00;98864.25;5065020;28;20495;-41
2023/07/15 00:56:25;;;;;;;6.47;4.53;;;;;;;16.19;100.00;98858.91;5063209;28;20043;-41
2023/07/15 00:58:52;;;;;;;6.97;4.72;;;;;;;16.18;100.00;98861.63;5062012;28;20040;-42
2023/07/15 01:01:18;;;;;;;6.30;4.78;;;;;;;16.19;100.00;98863.31;5049532;28;20048;-41
2023/07/15 01:03:45;;;;;;;6.35;4.53;;;;;;;16.18;100.00;98872.09;5064992;28;20043;-42
2023/07/15 01:06:12;;;;;;;6.22;4.20;;;;;;;16.17;100.00;98858.19;5067579;28;20589;-41
2023/07/15 01:08:38;;;;;;;4.75;3.45;;;;;;;16.17;100.00;98863.44;5067276;28;20049;-41
2023/07/15 01:11:06;;;;;;;7.38;3.85;;;;;;;16.14;100.00;98863.63;5066643;28;20577;-41
2023/07/15 01:13:33;;;;;;;4.95;3.90;;;;;;;16.09;100.00;98860.50;5064939;28;20036;-41
2023/07/15 01:15:59;;;;;;;4.53;3.35;;;;;;;16.10;100.00;98860.41;5067372;28;20066;-41
2023/07/15 01:18:25;;;;;;;5.20;3.22;;;;;;;16.09;100.00;98850.00;5065765;28;20040;-42
2023/07/15 01:20:51;;;;;;;4.80;3.47;;;;;;;16.09;100.00;98857.88;5065913;28;20064;-41
2023/07/15 01:23:17;;;;;;;11.68;3.85;;;;;;;16.07;100.00;98849.25;5066002;28;20075;-41
2023/07/15 01:25:43;;;;;;;4.90;3.63;;;;;;;16.08;100.00;98851.78;5066215;28;20126;-41
2023/07/15 01:28:09;;;;;;;4.32;3.42;;;;;;;16.07;100.00;98849.25;5044558;28;20638;-41
2023/07/15 01:30:35;;;;;;;4.10;2.88;;;;;;;15.98;100.00;98835.03;5060906;28;20536;-42
2023/07/15 01:33:01;;;;;;;4.55;3.20;;;;;;;16.06;100.00;98850.22;5047957;28;20040;-41
2023/07/15 01:35:27;;;;;;;6.82;3.08;;;;;;;16.05;100.00;98853.78;5032368;28;20056;-41
2023/07/15 01:37:53;;;;;;;6.20;2.97;;;;;;;16.03;100.00;98839.94;5065884;28;20508;-41
2023/07/15 01:40:19;;;;;;;3.63;3.00;;;;;;;16.05;100.00;98845.94;5065972;28;20040;-41
2023/07/15 01:42:45;;;;;;;4.00;2.78;;;;;;;16.04;100.00;98849.50;5058666;28;20213;-41
2023/07/15 01:45:11;;;;;;;3.65;2.45;;;;;;;16.01;100.00;98844.47;5053406;28;20119;-41
2023/07/15 01:47:38;;;;;;;3.72;2.72;;;;;;;16.01;100.00;98847.09;5064921;28;20672;-42
2023/07/15 01:50:08;;;;;;;3.20;2.40;;;;;;;16.02;100.00;98844.34;5060970;28;20048;-41
2023/07/15 01:52:34;;;;;;;3.60;2.97;;;;;;;16.00;100.00;98851.50;5062438;28;20079;-41
2023/07/15 01:55:00;;;;;;;3.47;2.80;;;;;;;16.00;100.00;98854.13;5029694;28;20435;-41
2023/07/15 01:57:30;;;;;;;4.28;2.88;;;;;;;16.00;100.00;98854.13;5061315;28;20044;-42
2023/07/15 02:00:00;;;;;;;2.83;2.45;;;;;;;15.97;100.00;98845.59;5066486;28;20066;-41
2023/07/15 02:02:26;;;;;;;2.92;2.58;;;;;;;15.99;100.00;98852.44;5065894;28;20089;-41
2023/07/15 02:04:54;;;;;;;6.17;3.07;;;;;;;15.96;100.00;98847.38;5050012;28;20087;-41
2023/07/15 02:07:20;;;;;;;3.67;2.58;;;;;;;15.95;100.00;98850.13;5046739;28;20041;-41
2023/07/15 02:09:46;;;;;;;6.47;2.90;;;;;;;15.92;100.00;98850.34;5063682;28;20043;-41
2023/07/15 02:12:12;;;;;;;5.22;2.72;;;;;;;15.87;100.00;98848.03;5048850;28;20416;-41
2023/07/15 02:14:38;;;;;;;3.85;2.80;;;;;;;15.88;100.00;98851.50;5062100;28;20044;-41
2023/07/15 02:17:05;;;;;;;5.95;2.83;;;;;;;15.86;100.00;98856.03;5045507;28;20036;-41
2023/07/15 02:19:31;;;;;;;3.20;2.40;;;;;;;15.86;100.00;98848.16;5039412;28;20040;-41
2023/07/15 02:21:59;;;;;;;3.80;2.50;;;;;;;15.87;100.00;98853.28;5057612;28;20568;-42
2023/07/15 02:24:25;;;;;;;4.65;2.75;;;;;;;15.86;100.00;98856.84;5066807;28;20127;-41
2023/07/15 02:26:51;;;;;;;4.35;2.85;;;;;;;15.90;100.00;98865.34;5067871;28;20044;-42
2023/07/15 02:29:17;;;;;;;3.45;2.53;;;;;;;15.84;100.00;98857.91;5066921;28;20040;-40
2023/07/15 02:31:44;;;;;;;3.13;2.40;;;;;;;15.91;100.00;98862.59;5085845;28;20115;-41
2023/07/15 02:34:10;;;;;;;2.83;2.17;;;;;;;15.94;100.00;98866.81;5067569;28;20044;-41
2023/07/15 02:36:37;;;;;;;3.60;2.53;;;;;;;15.93;100.00;98865.97;5068643;28;20040;-41
2023/07/15 02:39:06;;;;;;;3.25;2.08;;;;;;;15.93;100.00;98867.75;5068533;28;20058;-40
2023/07/15 02:41:32;;;;;;;2.72;2.20;;;;;;;15.91;100.00;98864.41;5067769;28;20044;-42
2023/07/15 02:43:59;;;;;;;2.30;2.00;;;;;;;15.95;100.00;98871.09;5063378;28;20044;-41
2023/07/15 02:46:25;;;;;;;3.90;3.13;;;;;;;15.97;100.00;98864.81;5052053;28;20068;-41
2023/07/15 02:48:51;;;;;;;3.38;2.40;;;;;;;16.00;100.00;98875.09;5050680;28;20131;-42
2023/07/15 02:51:19;;;;;;;3.55;2.13;;;;;;;16.03;100.00;98874.88;5018920;28;20029;-40
2023/07/15 02:53:46;;;;;;;3.67;2.53;;;;;;;16.05;100.00;98875.59;5066626;28;20036;-40
2023/07/15 02:56:12;;;;;;;2.85;2.03;;;;;;;16.05;100.00;98874.78;5014522;28;20286;-41
2023/07/15 02:58:38;;;;;;;3.40;2.10;;;;;;;15.98;100.00;98858.63;5031681;28;20056;-41
2023/07/15 03:01:04;;;;;;;4.05;2.50;;;;;;;16.13;100.00;98877.69;5035987;28;20135;-41
2023/07/15 03:03:30;;;;;;;2.58;1.90;;;;;;;16.16;100.00;98879.25;5068338;28;20046;-41
2023/07/15 03:05:56;;;;;;;2.42;2.22;;;;;;;16.19;100.00;98889.53;5083773;28;20048;-40
2023/07/15 03:08:22;;;;;;;2.00;1.60;;;;;;;16.20;100.00;98883.34;5051743;28;20052;-42
2023/07/15 03:10:49;;;;;;;4.28;1.60;;;;;;;16.21;100.00;98878.00;5069551;28;20028;-42
2023/07/15 03:13:15;;;;;;;8.35;2.78;;;;;;;16.21;100.00;98880.63;5068294;28;20052;-41
2023/07/15 03:15:43;;;;;;;4.05;2.00;;;;;;;16.24;100.00;98884.81;5068121;28;20037;-41
2023/07/15 03:18:09;;;;;;;2.67;1.90;;;;;;;16.25;100.00;98879.44;5069333;28;20040;-42
2023/07/15 03:20:35;;;;;;;2.72;2.10;;;;;;;16.27;100.00;98881.97;5066556;28;20046;-41
2023/07/15 03:23:01;;;;;;;3.05;2.20;;;;;;;16.27;100.00;98874.94;5066653;28;20090;-41
2023/07/15 03:25:27;;;;;;;6.13;3.80;;;;;;;16.15;100.00;98854.81;5069107;28;20051;-41
2023/07/15 03:27:53;;;;;;;4.03;1.88;;;;;;;16.06;100.00;98842.38;5069102;28;20044;-40
2023/07/15 03:30:19;;;;;;;3.25;2.05;;;;;;;16.34;100.00;98881.41;5067368;28;20028;-41
2023/07/15 03:32:46;;;;;;;2.42;1.67;;;;;;;16.34;100.00;98878.78;5065301;28;20047;-41
2023/07/15 03:35:15;;;;;;;4.88;3.60;;;;;;;16.32;100.00;98885.97;5065484;28;20041;-41
2023/07/15 03:37:43;;;;;;;2.30;1.75;;;;;;;16.32;100.00;98887.75;5068666;28;20071;-42
2023/07/15 03:40:13;;;;;;;2.35;1.60;;;;;;;16.31;100.00;98888.69;5047815;28;20048;-41
2023/07/15 03:42:39;;;;;;;3.17;2.53;;;;;;;16.09;100.00;98853.47;5027369;28;20072;-41
2023/07/15 03:45:06;;;;;;;4.30;2.03;;;;;;;16.20;100.00;98865.81;5067686;28;20040;-41
2023/07/15 03:47:35;;;;;;;3.78;1.67;;;;;;;16.05;100.00;98854.63;5050791;28;20169;-40
2023/07/15 03:50:02;;;;;;;1.75;1.50;;;;;;;16.29;100.00;98899.28;5067208;28;20115;-41
2023/07/15 03:52:30;;;;;;;5.13;1.70;;;;;;;16.26;100.00;98898.66;5066298;28;20795;-41
2023/07/15 03:54:57;;;;;;;1.73;1.45;;;;;;;16.21;100.00;98887.66;5050852;28;20080;-45
2023/07/15 03:57:23;;;;;;;4.05;1.88;;;;;;;16.22;100.00;98890.16;5067034;28;20066;-41
2023/07/15 03:59:49;;;;;;;5.03;2.08;;;;;;;16.24;100.00;98897.91;5067096;28;20040;-41
2023/07/15 04:02:14;;;;;;;2.22;1.55;;;;;;;16.24;100.00;98901.38;5050543;28;20516;-42
2023/07/15 04:04:41;;;;;;;2.63;1.63;;;;;;;16.21;100.00;98896.34;5068373;28;20048;-41
2023/07/15 04:07:09;;;;;;;3.45;1.70;;;;;;;16.11;100.00;98879.59;5066754;28;20040;-41
2023/07/15 04:09:38;;;;;;;3.03;1.95;;;;;;;16.27;100.00;98902.97;5066102;28;20120;-41
2023/07/15 04:12:06;;;;;;;2.90;1.50;;;;;;;16.28;100.00;98899.38;5057763;28;20071;-41
2023/07/15 04:14:32;;;;;;;2.92;1.58;;;;;;;16.27;100.00;98900.34;5046908;28;20075;-42
2023/07/15 04:16:58;;;;;;;1.75;1.60;;;;;;;16.36;100.00;98897.06;5048262;28;20137;-41
2023/07/15 04:19:24;;;;;;;1.65;1.40;;;;;;;16.27;100.00;98876.72;5047228;28;20037;-42
2023/07/15 04:21:50;;;;;;;4.65;1.58;;;;;;;16.47;100.00;98898.00;5061619;28;20036;-41
2023/07/15 04:24:15;;;;;;;1.80;1.35;;;;;;;16.56;100.00;98903.53;5066948;28;20154;-42
2023/07/15 04:26:43;;;;;;;1.60;1.30;;;;;;;16.61;100.00;98901.44;5049322;28;20127;-42
2023/07/15 04:29:09;;;;;;;1.23;1.10;;;;;;;16.65;100.00;98900.25;5068031;28;20105;-42
2023/07/15 04:31:37;;;;;;;3.28;1.30;;;;;;;16.69;100.00;98910.47;5066479;28;20028;-42
2023/07/15 04:34:03;;;;;;;2.13;1.13;;;;;;;16.72;100.00;98909.38;5068062;28;20044;-42
2023/07/15 04:36:30;;;;;;;2.45;1.42;;;;;;;16.58;100.00;98888.50;5067642;28;20040;-41
2023/07/15 04:38:56;;;;;;;1.67;1.27;;;;;;;16.72;100.00;98917.25;5065763;28;20041;-41
2023/07/15 04:41:22;;;;;;;1.45;1.10;;;;;;;16.70;100.00;98906.00;5048847;28;20063;-41
2023/07/15 04:43:48;;;;;;;2.05;1.30;;;;;;;16.67;100.00;98914.13;5065333;28;20058;-40
2023/07/15 04:46:14;;;;;;;1.33;1.08;;;;;;;16.66;100.00;98913.28;5066438;28;20098;-42
2023/07/15 04:48:40;;;;;;;1.73;1.40;;;;;;;16.69;100.00;98918.34;5049334;28;20048;-41
2023/07/15 04:51:06;;;;;;;2.08;1.52;;;;;;;16.70;100.00;98925.22;5067464;28;20036;-40
2023/07/15 04:53:32;;;;;;;2.25;1.42;;;;;;;16.72;100.00;98919.88;5049899;28;20068;-41
2023/07/15 04:55:58;;;;;;;1.88;1.00;;;;;;;16.75;100.00;98923.13;5049312;28;20084;-43
2023/07/15 04:58:24;;;;;;;2.40;1.25;;;;;;;16.75;100.00;98931.00;5066782;28;20435;-41
2023/07/15 05:00:50;;;;;;;2.40;1.15;;;;;;;16.72;100.00;98928.59;5047190;28;20049;-42
2023/07/15 05:03:17;;;;;;;1.40;1.20;;;;;;;16.73;100.00;98926.81;5066663;28;20492;-43
2023/07/15 05:05:46;;;;;;;1.50;1.30;;;;;;;16.72;100.00;98939.09;5048989;28;20048;-41
2023/07/15 05:08:14;;;;;;;1.45;1.20;;;;;;;16.73;100.00;98934.69;5047663;28;20067;-42
2023/07/15 05:10:40;;;;;;;3.10;1.20;;;;;;;16.74;100.00;98939.00;5047989;28;20045;-41
2023/07/15 05:13:09;;;;;;;1.35;1.23;;;;;;;16.76;100.00;98935.28;5065087;28;20048;-41
2023/07/15 05:15:38;;;;;;;;;;;;;;;16.80;100.00;98941.19;5065878;28;20125;-40
2023/07/15 05:18:04;;;;;;;3.10;1.60;;;;;;;16.78;100.00;98935.19;5066591;28;19917;-41
2023/07/15 05:20:34;;;;;;;2.92;1.67;;;;;;;16.78;100.00;98936.03;5065970;28;20044;-42
2023/07/15 05:23:01;;;;;;;3.47;1.60;;;;;;;16.79;100.00;98937.72;5064805;28;20072;-41
2023/07/15 05:25:27;;;;;;;2.13;1.55;;;;;;;16.79;100.00;98945.59;5066740;28;20048;-42
2023/07/15 05:27:53;;;;;;;2.17;1.50;;;;;;;16.81;100.00;98938.44;5066130;28;20033;-42
2023/07/15 05:30:19;;;;;;;6.18;2.58;;;;;;;16.87;100.00;98934.53;5062513;28;20060;-42
2023/07/15 05:32:45;;;;;;;2.28;1.60;;;;;;;16.89;100.00;98945.78;5054737;28;20424;-41
2023/07/15 05:35:11;;;;;;;4.68;1.83;;;;;;;16.77;100.00;98918.59;5045871;28;20044;-42
2023/07/15 05:37:37;;;;;;;2.97;1.50;;;;;;;16.92;100.00;98946.38;5059011;28;20040;-41
2023/07/15 05:40:09;;;;;;;2.75;1.20;;;;;;;16.82;100.00;98921.75;5066396;28;20043;-42
2023/07/15 05:42:45;;;;;;;2.17;1.90;;;;;;;16.98;100.00;98939.00;5060820;28;20039;-41
2023/07/15 05:45:12;;;;;;;2.88;1.60;;;;;;;17.06;100.00;98934.06;5045855;28;20036;-41
2023/07/15 05:47:39;;;;;;;2.55;1.30;;;;;;;17.15;100.00;98943.88;5060754;28;20048;-42
2023/07/15 05:50:06;;;;;;;1.60;1.13;;;;;;;17.04;100.00;98921.03;5049269;28;20051;-42
2023/07/15 05:52:33;;;;;;;1.80;1.50;;;;;;;17.30;100.00;98946.22;5065498;28;20420;-42
2023/07/15 05:54:59;;;;;;;3.25;1.67;;;;;;;17.33;100.00;98945.16;5049202;28;20049;-41
2023/07/15 05:57:25;;;;;;;2.50;1.70;;;;;;;17.35;100.00;98953.78;5062557;28;20188;-43
2023/07/15 05:59:51;;;;;;;4.13;1.35;;;;;;;17.36;100.00;98961.53;5048389;28;20044;-41
2023/07/15 06:02:17;;;;;;;1.90;1.50;;;;;;;17.31;100.00;98945.28;5052012;28;20040;-42
2023/07/15 06:04:43;;;;;;;3.15;1.48;;;;;;;17.36;100.00;98948.41;5070885;28;20036;-42
2023/07/15 06:07:09;;;;;;;3.38;2.00;;;;;;;17.24;100.00;98932.69;5068011;28;20093;-42
2023/07/15 06:09:35;;;;;;;4.60;2.00;;;;;;;17.24;100.00;98930.91;5070934;28;20151;-42
2023/07/15 06:12:01;;;;;;;3.42;1.80;;;;;;;17.10;100.00;98911.88;5067646;28;20113;-41
2023/07/15 06:14:27;;;;;;;2.20;1.55;;;;;;;17.34;100.00;98958.19;5069053;28;20044;-42
2023/07/15 06:16:52;;;;;;;4.35;1.73;;;;;;;17.32;100.00;98965.31;5070694;28;20036;-41
2023/07/15 06:19:18;;;;;;;2.58;1.58;;;;;;;17.30;100.00;98964.63;5072392;28;20500;-41
2023/07/15 06:21:44;;;;;;;2.42;1.70;;;;;;;17.27;100.00;98961.38;5069905;28;20047;-42
2023/07/15 06:24:10;;;;;;;4.18;2.00;;;;;;;17.31;100.00;98970.72;5070825;28;20040;-41
2023/07/15 06:26:37;;;;;;;3.05;1.90;;;;;;;17.13;100.00;98941.38;5069164;28;20760;-41
2023/07/15 06:29:03;;;;;;;3.70;1.98;;;;;;;17.24;100.00;98972.09;5052146;28;20047;-43
2023/07/15 06:31:28;;;;;;;4.47;1.70;;;;;;;17.18;100.00;98967.28;5069174;28;20028;-43
2023/07/15 06:33:54;;;;;;;2.25;1.60;;;;;;;17.16;100.00;98972.69;5069455;28;20052;-41
2023/07/15 06:36:20;;;;;;;2.88;1.55;;;;;;;17.14;100.00;98978.97;5069097;28;20094;-41
2023/07/15 06:38:47;;;;;;;4.47;1.52;;;;;;;17.12;100.00;98976.44;5052471;28;20036;-41
2023/07/15 06:41:13;;;;;;;3.50;1.70;;;;;;;17.12;100.00;98976.44;5051187;28;20048;-43
2023/07/15 06:43:38;;;;;;;5.90;2.15;;;;;;;17.16;100.00;98984.97;5066129;28;20182;-42
2023/07/15 06:46:06;;;;;;;2.20;1.73;;;;;;;16.99;100.00;98959.06;5070286;28;20128;-42
2023/07/15 06:48:32;;;;;;;2.63;2.00;;;;;;;17.19;100.00;98992.63;5070306;28;20040;-42
2023/07/15 06:50:58;;;;;;;2.80;2.00;;;;;;;17.15;100.00;98976.25;5068982;28;20523;-43
2023/07/15 06:53:24;;;;;;;2.90;2.17;;;;;;;17.24;100.00;98988.72;5070219;28;20045;-41
2023/07/15 06:55:51;;;;;;;3.42;2.00;;;;;;;17.27;100.00;98991.09;5068741;28;20147;-44
2023/07/15 06:58:17;;;;;;;2.63;1.90;;;;;;;17.30;100.00;98987.44;5066621;28;20040;-42
2023/07/15 07:00:43;;;;;;;4.93;1.95;;;;;;;17.30;100.00;98982.16;5068702;28;20085;-45
2023/07/15 07:03:09;;;;;;;4.45;2.65;;;;;;;17.45;100.00;98988.94;5069463;28;20075;-43
2023/07/15 07:05:35;;;;;;;6.50;2.05;;;;;;;17.54;100.00;98995.28;5068296;28;20044;-45
2023/07/15 07:08:01;;;;;;;5.53;2.40;;;;;;;17.60;100.00;98989.63;5068222;28;20037;-44
2023/07/15 07:10:27;;;;;;;3.60;2.30;;;;;;;17.54;100.00;98980.34;5070734;28;20420;-43
2023/07/15 07:12:53;;;;;;;5.20;2.17;;;;;;;17.74;100.00;99002.59;5069253;28;20040;-47
2023/07/15 07:15:19;;;;;;;4.00;2.42;;;;;;;17.78;100.00;98994.34;5068350;28;20140;-45
2023/07/15 07:17:45;;;;;;;4.07;2.78;;;;;;;17.83;100.00;98998.44;5067615;28;20062;-44
2023/07/15 07:20:11;;;;;;;5.05;2.60;;;;;;;17.91;100.00;98998.69;5067401;28;20424;-43
2023/07/15 07:22:37;;;;;;;6.15;2.85;;;;;;;17.89;100.00;98996.19;5067624;28;20056;-43
2023/07/15 07:25:04;;;;;;;4.05;2.63;;;;;;;17.98;100.00;99013.91;5067839;28;20655;-46
2023/07/15 07:27:30;;;;;;;3.65;2.85;;;;;;;18.08;100.00;99009.63;5072307;28;20033;-44
2023/07/15 07:29:59;;;;;;;4.00;2.70;;;;;;;18.18;99.99;99017.63;5068778;28;20401;-46
2023/07/15 07:32:26;;;;;;;3.83;2.83;;;;;;;18.28;99.29;99015.13;5068218;28;20135;-45
2023/07/15 07:34:53;;;;;;;4.00;2.92;;;;;;;18.38;99.15;99009.06;5065408;28;20063;-43
2023/07/15 07:37:19;;;;;;;5.07;3.40;;;;;;;18.50;98.50;99015.19;5069341;28;20133;-43
2023/07/15 07:39:44;;;;;;;5.80;3.17;;;;;;;18.60;97.73;99013.53;5067394;28;20068;-43
2023/07/15 07:42:10;;;;;;;4.22;2.90;;;;;;;18.55;97.27;98979.66;5066590;28;20059;-46
2023/07/15 07:44:36;;;;;;;5.35;3.10;;;;;;;18.81;96.74;99006.59;5075275;28;20040;-44
2023/07/15 07:47:03;;;;;;;6.10;3.63;;;;;;;18.73;96.16;98977.41;5079180;28;20036;-45
2023/07/15 07:49:28;;;;;;;4.57;3.50;;;;;;;19.04;95.59;99010.06;5066388;28;20032;-44
2023/07/15 07:51:54;;;;;;;8.23;3.00;;;;;;;19.09;95.14;99022.84;5069454;28;20052;-48
2023/07/15 07:54:20;;;;;;;5.10;3.63;;;;;;;19.11;94.82;99024.38;5061553;28;20071;-46
2023/07/15 07:56:46;;;;;;;5.45;3.30;;;;;;;18.96;94.52;99000.09;5065595;28;20040;-43
2023/07/15 07:59:12;;;;;;;4.80;3.10;;;;;;;18.95;94.30;98987.03;5067598;28;20033;-42
2023/07/15 08:01:39;;;;;;;7.75;4.22;;;;;;;19.11;94.38;98999.84;5068886;28;20044;-42
2023/07/15 08:04:05;;;;;;;5.40;3.47;;;;;;;19.33;94.23;99024.34;5046830;28;20036;-44
2023/07/15 08:06:30;;;;;;;6.30;3.28;;;;;;;19.35;94.12;99024.25;5066412;28;20143;-44
2023/07/15 08:08:56;;;;;;;6.03;3.40;;;;;;;19.33;94.06;99018.25;5066019;28;20032;-49
2023/07/15 08:11:22;;;;;;;6.00;3.53;;;;;;;19.28;93.80;99028.31;5067458;28;20058;-44
2023/07/15 08:13:48;;;;;;;5.75;3.47;;;;;;;19.05;93.78;99001.19;5066093;28;20190;-44
2023/07/15 08:16:37;;;;;;;6.10;3.70;;;;;;;19.07;94.24;99022.97;5066400;28;20047;-42
2023/07/15 08:19:04;;;;;;;5.55;3.40;;;;;;;18.81;94.56;99000.47;5068576;28;20097;-43
2023/07/15 08:21:31;;;;;;;6.07;3.60;;;;;;;18.83;95.17;99025.75;5066528;28;20751;-42
2023/07/15 08:23:57;;;;;;;7.00;3.83;;;;;;;18.76;95.31;99021.91;5063644;28;20117;-42
2023/07/15 08:26:23;;;;;;;6.53;3.90;;;;;;;18.84;95.66;99023.97;5048088;28;20032;-43
2023/07/15 08:28:49;;;;;;;4.93;3.65;;;;;;;18.98;95.77;99021.06;5062861;28;20223;-46
2023/07/15 08:31:15;;;;;;;4.60;3.55;;;;;;;19.23;95.17;99022.56;5068189;28;20041;-43
2023/07/15 08:33:41;;;;;;;5.00;4.50;;;;;;;19.42;95.01;99031.50;5067956;28;20048;-42
2023/07/15 08:36:07;;;;;;;5.15;3.80;;;;;;;19.63;94.22;99028.94;5067742;28;20041;-43
2023/07/15 08:38:33;;;;;;;4.65;3.80;;;;;;;19.86;93.48;99025.28;5068608;28;20043;-46
2023/07/15 08:41:01;;;;;;;5.10;3.42;;;;;;;20.11;92.69;99029.34;5063421;28;20044;-43
2023/07/15 08:43:30;;;;;;;4.45;3.63;;;;;;;20.39;91.47;99033.16;5059990;28;20043;-43
2023/07/15 08:46:02;;;;;;;6.43;3.70;;;;;;;20.52;90.44;99014.44;5050158;28;20072;-42
2023/07/15 08:48:29;;;;;;;3.78;3.35;;;;;;;20.76;88.85;99030.00;5053270;28;20045;-44
2023/07/15 08:50:56;;;;;;;4.18;3.40;;;;;;;20.90;87.25;99034.94;5060724;28;20269;-43
2023/07/15 08:53:27;;;;;;;3.88;3.47;;;;;;;21.05;85.60;99037.06;5061286;28;20040;-42
2023/07/15 08:55:57;;;;;;;4.72;3.40;;;;;;;21.12;84.55;99040.00;5070487;28;20048;-45
2023/07/15 08:58:23;;;;;;;4.65;3.20;;;;;;;21.08;83.52;99039.47;5061730;28;20044;-42
2023/07/15 09:00:51;;;;;;;4.60;3.22;;;;;;;21.16;82.63;99038.78;5064641;28;20454;-43
2023/07/15 09:03:19;;;;;;;4.38;3.50;;;;;;;21.13;81.81;99008.16;5063248;28;20036;-41
2023/07/15 09:05:45;;;;;;;5.70;3.63;;;;;;;21.26;81.54;99030.88;5062767;28;20048;-43
2023/07/15 09:08:15;;;;;;;4.38;3.33;;;;;;;21.43;81.05;99041.66;5062065;28;20151;-43
2023/07/15 09:10:52;;;;;;;3.72;2.72;;;;;;;21.49;79.96;99017.28;5076122;28;20520;-44
2023/07/15 09:13:26;;;;;;;3.85;3.00;;;;;;;21.73;78.64;99045.16;5062845;28;20720;-43
2023/07/15 09:15:52;;;;;;;2.90;2.60;;;;;;;21.82;78.22;99034.59;5062119;28;20040;-47
2023/07/15 09:18:21;;;;;;;4.82;3.15;;;;;;;21.72;77.42;98990.59;5067051;28;20060;-44
2023/07/15 09:20:47;;;;;;;3.47;2.58;;;;;;;22.09;76.28;99035.69;5061272;28;20563;-42
2023/07/15 09:23:14;;;;;;;3.03;2.70;;;;;;;22.14;75.54;99041.44;5066197;28;20135;-47
2023/07/15 09:25:52;;;;;;;4.03;2.13;;;;;;;22.04;74.58;99036.13;5063053;28;20132;-42
2023/07/15 09:28:21;;;;;;;3.05;2.45;;;;;;;21.78;74.59;99038.47;5059224;28;20679;-41
2023/07/15 09:30:47;;;;;;;;;;;;;;;21.73;75.01;99042.50;5065480;28;20078;-50
2023/07/15 09:33:29;;;;;;;2.60;2.30;;;;;;;21.77;75.32;99043.91;5066474;28;20380;-41
2023/07/15 09:35:55;;;;;;;3.22;2.25;;;;;;;22.06;74.73;99041.28;5070080;28;20621;-44
2023/07/15 09:38:21;;;;;;;2.22;1.70;;;;;;;22.28;73.57;99035.69;5069134;28;20041;-41
2023/07/15 09:40:48;;;;;;;2.10;1.90;;;;;;;22.54;72.42;99034.09;5070305;28;20640;-45
2023/07/15 09:43:15;;;;;;;3.33;2.10;;;;;;;22.52;71.79;99043.97;5067328;28;20082;-42
2023/07/15 09:45:41;;;;;;;2.58;1.60;;;;;;;22.03;72.75;99041.56;5063143;28;20749;-42
2023/07/15 09:48:08;;;;;;;1.50;1.30;;;;;;;21.52;73.76;99050.56;5086962;28;20048;-42
2023/07/15 09:50:36;;;;;;;2.55;1.40;;;;;;;21.05;74.60;99039.72;5066071;28;20039;-41
2023/07/15 09:53:03;;;;;;;2.55;1.42;;;;;;;20.71;75.95;99049.75;5058762;28;20045;-42
2023/07/15 09:55:31;;;;;;;2.78;1.67;;;;;;;20.43;77.56;99049.56;5064287;28;20060;-41
2023/07/15 09:58:18;;;;;;;4.35;1.50;;;;;;;20.04;79.25;99030.00;5067037;28;20504;-42
2023/07/15 10:00:47;;;;;;;2.88;1.45;;;;;;;20.09;80.13;99055.03;5061573;28;20415;-41
2023/07/15 10:03:23;;;;;;;2.17;1.50;;;;;;;20.09;80.45;99046.28;5064011;28;20052;-41
2023/07/15 10:05:49;;;;;;;2.53;1.40;;;;;;;20.28;80.53;99044.59;5069321;28;20037;-41
2023/07/15 10:08:15;;;;;;;2.78;1.35;;;;;;;20.28;80.70;99001.53;5031097;28;20055;-41
2023/07/15 10:10:41;;;;;;;2.28;1.60;;;;;;;20.78;79.66;99043.94;5050042;28;20412;-42
2023/07/15 10:13:10;;;;;;;2.80;1.70;;;;;;;21.07;79.56;99045.72;5069502;28;20043;-43
2023/07/15 10:15:36;;;;;;;5.05;1.80;;;;;;;21.37;78.63;99044.84;5068589;28;20083;-42
2023/07/15 10:18:17;;;;;;;2.50;1.50;;;;;;;21.63;77.63;99046.94;5064859;28;20129;-43
2023/07/15 10:20:55;;;;;;;3.15;1.67;;;;;;;21.71;76.97;99047.13;5059982;28;20049;-43
2023/07/15 10:23:29;;;;;;;2.60;1.63;;;;;;;21.80;76.62;99033.03;5062656;28;20036;-42
2023/07/15 10:26:01;;;;;;;2.35;1.40;;;;;;;22.03;75.56;99044.22;5057255;28;20048;-40
2023/07/15 10:28:39;;;;;;;3.65;1.50;;;;;;;22.07;75.20;99049.09;5063241;28;20040;-43
2023/07/15 10:31:13;;;;;;;3.00;1.50;;;;;;;22.13;74.65;99058.28;5067567;28;20036;-42
2023/07/15 10:33:59;;;;;;;3.58;1.67;;;;;;;22.11;74.00;99057.59;5079268;28;20041;-42
2023/07/15 10:36:41;;;;;;;5.65;2.05;;;;;;;21.97;74.06;99042.97;5068423;28;20036;-41
2023/07/15 10:39:18;;;;;;;1.85;1.50;;;;;;;22.05;73.68;99026.38;5051223;28;20040;-42
2023/07/15 10:41:48;;;;;;;2.25;2.05;;;;;;;22.53;72.51;99042.16;5061445;28;20044;-42
2023/07/15 10:44:23;;;;;;;2.55;1.90;;;;;;;23.04;70.67;99039.91;5064616;28;20569;-41
2023/07/15 10:47:02;;;;;;;2.55;1.77;;;;;;;23.76;68.01;99044.34;5061725;28;20044;-42
2023/07/15 10:49:30;;;;;;;2.65;2.00;;;;;;;24.02;66.48;99039.13;5057786;28;20040;-43
2023/07/15 10:51:57;;;;;;;3.58;1.70;;;;;;;24.05;65.79;99038.81;5068799;28;20041;-43
2023/07/15 10:54:25;;;;;;;4.25;2.22;;;;;;;24.21;64.54;99040.78;5061872;28;20084;-42
2023/07/15 10:56:51;;;;;;;3.15;1.83;;;;;;;24.76;63.31;99041.31;5063556;28;20047;-39
2023/07/15 10:59:17;;;;;;;3.80;1.98;;;;;;;25.70;59.95;99050.00;5061587;28;20512;-39
2023/07/15 11:01:43;;;;;;;2.60;1.70;;;;;;;26.50;57.40;99043.03;5067452;28;20036;-39
2023/07/15 11:04:09;;;;;;;2.30;1.75;;;;;;;27.21;55.33;99045.69;5067126;28;20047;-38
2023/07/15 11:06:35;;;;;;;3.05;1.30;;;;;;;27.96;53.33;99045.06;5058835;28;20152;-38
2023/07/15 11:09:18;;;;;;;1.40;1.30;;;;;;;27.93;51.28;99043.59;5067264;28;20068;-39
2023/07/15 11:11:44;;;;;;;4.07;1.60;;;;;;;27.49;52.05;99045.19;5051138;28;20699;-39
2023/07/15 11:14:27;;;;;;;2.10;1.67;;;;;;;26.26;52.90;99030.59;5068158;28;20047;-38
2023/07/15 11:16:55;;;;;;;1.70;1.33;;;;;;;25.28;54.47;99040.22;5064959;28;20040;-39
2023/07/15 11:19:23;;;;;;;2.75;1.27;;;;;;;24.53;56.21;99030.41;5049948;28;20032;-38
2023/07/15 11:21:51;;;;;;;2.85;1.45;;;;;;;24.30;56.67;99039.88;5063208;28;20049;-40
2023/07/15 11:24:17;;;;;;;3.92;1.42;;;;;;;24.18;56.60;99038.47;5049754;28;20040;-37
2023/07/15 11:26:45;;;;;;;3.40;1.30;;;;;;;24.46;56.39;99022.22;5065013;28;20040;-37
2023/07/15 11:29:21;;;;;;;2.00;1.48;;;;;;;24.81;56.17;99044.31;5067735;28;20097;-38
2023/07/15 11:31:49;;;;;;;2.30;1.73;;;;;;;24.93;56.10;99045.75;5066434;28;20499;-38